sensor_id;sensor_type;location;lat;lon;timestamp;temperature;humidity
70762;DHT22;58360;0.000;0.000;2023-05-07T00:01:43;16.10;94.70
70762;DHT22;58360;0.000;0.000;2023-05-07T00:04:09;16.10;94.70
70762;DHT22;58360;0.000;0.000;2023-05-07T00:06:35;16.20;94.70
70762;DHT22;58360;0.000;0.000;2023-05-07T00:09:01;16.30;94.50
70762;DHT22;58360;0.000;0.000;2023-05-07T00:11:27;16.50;93.90
70762;DHT22;58360;0.000;0.000;2023-05-07T00:13:53;16.50;93.80
70762;DHT22;58360;0.000;0.000;2023-05-07T00:16:19;16.40;94.10
70762;DHT22;58360;0.000;0.000;2023-05-07T00:18:45;16.20;94.40
70762;DHT22;58360;0.000;0.000;2023-05-07T00:21:11;16.20;94.60
70762;DHT22;58360;0.000;0.000;2023-05-07T00:23:37;16.30;94.40
70762;DHT22;58360;0.000;0.000;2023-05-07T00:26:03;16.20;94.60
70762;DHT22;58360;0.000;0.000;2023-05-07T00:28:29;16.10;95.10
70762;DHT22;58360;0.000;0.000;2023-05-07T00:30:55;16.00;94.80
70762;DHT22;58360;0.000;0.000;2023-05-07T00:33:21;15.90;95.00
70762;DHT22;58360;0.000;0.000;2023-05-07T00:35:47;15.80;95.30
70762;DHT22;58360;0.000;0.000;2023-05-07T00:38:13;15.90;95.30
70762;DHT22;58360;0.000;0.000;2023-05-07T00:40:39;15.90;95.20
70762;DHT22;58360;0.000;0.000;2023-05-07T00:43:06;15.90;95.30
70762;DHT22;58360;0.000;0.000;2023-05-07T00:45:32;15.90;95.40
70762;DHT22;58360;0.000;0.000;2023-05-07T00:48:00;15.90;95.50
70762;DHT22;58360;0.000;0.000;2023-05-07T00:50:27;15.80;95.70
70762;DHT22;58360;0.000;0.000;2023-05-07T00:52:53;15.80;95.80
70762;DHT22;58360;0.000;0.000;2023-05-07T00:55:20;16.00;95.70
70762;DHT22;58360;0.000;0.000;2023-05-07T00:57:46;16.00;95.20
70762;DHT22;58360;0.000;0.000;2023-05-07T01:00:12;15.90;95.30
70762;DHT22;58360;0.000;0.000;2023-05-07T01:02:42;16.00;95.40
70762;DHT22;58360;0.000;0.000;2023-05-07T01:05:12;15.90;95.60
70762;DHT22;58360;0.000;0.000;2023-05-07T01:07:39;15.90;95.60
70762;DHT22;58360;0.000;0.000;2023-05-07T01:10:06;15.80;95.80
70762;DHT22;58360;0.000;0.000;2023-05-07T01:12:33;15.80;96.00
70762;DHT22;58360;0.000;0.000;2023-05-07T01:15:00;15.80;95.90
70762;DHT22;58360;0.000;0.000;2023-05-07T01:17:26;15.80;95.90
70762;DHT22;58360;0.000;0.000;2023-05-07T01:19:52;15.70;96.10
70762;DHT22;58360;0.000;0.000;2023-05-07T01:22:31;15.70;96.10
70762;DHT22;58360;0.000;0.000;2023-05-07T01:24:58;15.70;96.30
70762;DHT22;58360;0.000;0.000;2023-05-07T01:27:25;15.60;96.10
70762;DHT22;58360;0.000;0.000;2023-05-07T01:29:51;15.60;96.20
70762;DHT22;58360;0.000;0.000;2023-05-07T01:32:21;15.50;96.30
70762;DHT22;58360;0.000;0.000;2023-05-07T01:34:48;15.50;96.30
70762;DHT22;58360;0.000;0.000;2023-05-07T01:37:15;15.50;96.30
70762;DHT22;58360;0.000;0.000;2023-05-07T01:39:42;15.50;96.40
70762;DHT22;58360;0.000;0.000;2023-05-07T01:42:08;15.50;96.40
70762;DHT22;58360;0.000;0.000;2023-05-07T01:44:34;15.50;96.40
70762;DHT22;58360;0.000;0.000;2023-05-07T01:47:02;15.50;96.40
70762;DHT22;58360;0.000;0.000;2023-05-07T01:49:28;15.50;96.40
70762;DHT22;58360;0.000;0.000;2023-05-07T01:51:53;15.50;96.40
70762;DHT22;58360;0.000;0.000;2023-05-07T01:54:25;15.50;96.40
70762;DHT22;58360;0.000;0.000;2023-05-07T01:56:53;15.60;96.40
70762;DHT22;58360;0.000;0.000;2023-05-07T01:59:18;15.50;96.30
70762;DHT22;58360;0.000;0.000;2023-05-07T02:01:44;15.50;96.30
70762;DHT22;58360;0.000;0.000;2023-05-07T02:04:10;15.50;96.20
70762;DHT22;58360;0.000;0.000;2023-05-07T02:06:35;15.40;96.30
70762;DHT22;58360;0.000;0.000;2023-05-07T02:09:01;15.50;96.30
70762;DHT22;58360;0.000;0.000;2023-05-07T02:11:27;15.60;96.10
70762;DHT22;58360;0.000;0.000;2023-05-07T02:13:52;15.70;95.90
70762;DHT22;58360;0.000;0.000;2023-05-07T02:16:18;15.60;96.10
70762;DHT22;58360;0.000;0.000;2023-05-07T02:18:45;15.50;96.20
70762;DHT22;58360;0.000;0.000;2023-05-07T02:21:11;15.50;96.40
70762;DHT22;58360;0.000;0.000;2023-05-07T02:23:36;15.40;96.50
70762;DHT22;58360;0.000;0.000;2023-05-07T02:26:03;15.30;96.70
70762;DHT22;58360;0.000;0.000;2023-05-07T02:28:29;15.40;96.70
70762;DHT22;58360;0.000;0.000;2023-05-07T02:30:54;15.50;96.50
70762;DHT22;58360;0.000;0.000;2023-05-07T02:33:21;15.50;96.40
70762;DHT22;58360;0.000;0.000;2023-05-07T02:35:47;15.50;96.40
70762;DHT22;58360;0.000;0.000;2023-05-07T02:38:13;15.50;96.40
70762;DHT22;58360;0.000;0.000;2023-05-07T02:40:38;15.60;96.30
70762;DHT22;58360;0.000;0.000;2023-05-07T02:43:05;15.50;96.30
70762;DHT22;58360;0.000;0.000;2023-05-07T02:45:32;15.50;96.40
70762;DHT22;58360;0.000;0.000;2023-05-07T02:47:58;15.60;96.40
70762;DHT22;58360;0.000;0.000;2023-05-07T02:50:23;15.50;96.30
70762;DHT22;58360;0.000;0.000;2023-05-07T02:52:50;15.40;96.40
70762;DHT22;58360;0.000;0.000;2023-05-07T02:55:16;15.30;96.60
70762;DHT22;58360;0.000;0.000;2023-05-07T02:57:41;15.30;96.70
70762;DHT22;58360;0.000;0.000;2023-05-07T03:00:15;15.40;96.50
70762;DHT22;58360;0.000;0.000;2023-05-07T03:02:41;15.70;96.10
70762;DHT22;58360;0.000;0.000;2023-05-07T03:05:07;15.80;95.80
70762;DHT22;58360;0.000;0.000;2023-05-07T03:07:33;15.90;95.50
70762;DHT22;58360;0.000;0.000;2023-05-07T03:09:59;15.90;95.40
70762;DHT22;58360;0.000;0.000;2023-05-07T03:12:25;15.80;95.60
70762;DHT22;58360;0.000;0.000;2023-05-07T03:14:51;15.70;96.20
70762;DHT22;58360;0.000;0.000;2023-05-07T03:17:16;15.80;96.20
70762;DHT22;58360;0.000;0.000;2023-05-07T03:19:42;15.90;95.80
70762;DHT22;58360;0.000;0.000;2023-05-07T03:22:08;15.80;95.60
70762;DHT22;58360;0.000;0.000;2023-05-07T03:24:33;15.90;95.70
70762;DHT22;58360;0.000;0.000;2023-05-07T03:26:59;15.90;95.60
70762;DHT22;58360;0.000;0.000;2023-05-07T03:29:26;15.80;95.80
70762;DHT22;58360;0.000;0.000;2023-05-07T03:31:52;15.70;95.90
70762;DHT22;58360;0.000;0.000;2023-05-07T03:34:17;15.70;95.90
70762;DHT22;58360;0.000;0.000;2023-05-07T03:36:50;15.70;95.90
70762;DHT22;58360;0.000;0.000;2023-05-07T03:39:16;15.60;96.10
70762;DHT22;58360;0.000;0.000;2023-05-07T03:41:42;15.50;96.40
70762;DHT22;58360;0.000;0.000;2023-05-07T03:44:07;15.40;96.70
70762;DHT22;58360;0.000;0.000;2023-05-07T03:46:34;15.30;96.90
70762;DHT22;58360;0.000;0.000;2023-05-07T03:48:59;15.30;96.90
70762;DHT22;58360;0.000;0.000;2023-05-07T03:51:25;15.40;96.80
70762;DHT22;58360;0.000;0.000;2023-05-07T03:53:51;15.40;96.80
70762;DHT22;58360;0.000;0.000;2023-05-07T03:56:25;15.40;96.90
70762;DHT22;58360;0.000;0.000;2023-05-07T03:58:53;15.30;97.00
70762;DHT22;58360;0.000;0.000;2023-05-07T04:01:19;15.30;97.10
70762;DHT22;58360;0.000;0.000;2023-05-07T04:03:44;15.30;97.10
70762;DHT22;58360;0.000;0.000;2023-05-07T04:06:10;15.30;97.20
70762;DHT22;58360;0.000;0.000;2023-05-07T04:08:36;15.30;97.20
70762;DHT22;58360;0.000;0.000;2023-05-07T04:11:01;15.30;97.00
70762;DHT22;58360;0.000;0.000;2023-05-07T04:13:27;15.30;96.90
70762;DHT22;58360;0.000;0.000;2023-05-07T04:15:54;15.30;97.00
70762;DHT22;58360;0.000;0.000;2023-05-07T04:18:20;15.20;97.10
70762;DHT22;58360;0.000;0.000;2023-05-07T04:20:47;15.30;97.10
70762;DHT22;58360;0.000;0.000;2023-05-07T04:23:14;15.40;96.90
70762;DHT22;58360;0.000;0.000;2023-05-07T04:25:40;15.40;96.80
70762;DHT22;58360;0.000;0.000;2023-05-07T04:28:06;15.40;96.60
70762;DHT22;58360;0.000;0.000;2023-05-07T04:30:31;15.40;96.50
70762;DHT22;58360;0.000;0.000;2023-05-07T04:32:57;15.50;96.60
70762;DHT22;58360;0.000;0.000;2023-05-07T04:35:22;15.50;96.40
70762;DHT22;58360;0.000;0.000;2023-05-07T04:37:48;15.50;96.40
70762;DHT22;58360;0.000;0.000;2023-05-07T04:40:14;15.50;96.40
70762;DHT22;58360;0.000;0.000;2023-05-07T04:42:40;15.50;96.40
70762;DHT22;58360;0.000;0.000;2023-05-07T04:45:06;15.60;96.30
70762;DHT22;58360;0.000;0.000;2023-05-07T04:47:31;15.60;96.40
70762;DHT22;58360;0.000;0.000;2023-05-07T04:49:58;15.60;96.20
70762;DHT22;58360;0.000;0.000;2023-05-07T04:52:23;15.60;96.30
70762;DHT22;58360;0.000;0.000;2023-05-07T04:54:49;15.70;96.20
70762;DHT22;58360;0.000;0.000;2023-05-07T04:57:15;15.70;96.10
70762;DHT22;58360;0.000;0.000;2023-05-07T04:59:42;15.70;96.10
70762;DHT22;58360;0.000;0.000;2023-05-07T05:02:07;15.70;96.10
70762;DHT22;58360;0.000;0.000;2023-05-07T05:04:33;15.60;96.30
70762;DHT22;58360;0.000;0.000;2023-05-07T05:06:59;15.60;96.20
70762;DHT22;58360;0.000;0.000;2023-05-07T05:09:24;15.60;96.30
70762;DHT22;58360;0.000;0.000;2023-05-07T05:11:50;15.60;96.30
70762;DHT22;58360;0.000;0.000;2023-05-07T05:14:17;15.60;96.40
70762;DHT22;58360;0.000;0.000;2023-05-07T05:16:43;15.70;96.40
70762;DHT22;58360;0.000;0.000;2023-05-07T05:19:08;15.80;96.00
70762;DHT22;58360;0.000;0.000;2023-05-07T05:21:34;15.90;95.80
70762;DHT22;58360;0.000;0.000;2023-05-07T05:23:59;15.80;95.90
70762;DHT22;58360;0.000;0.000;2023-05-07T05:26:25;16.00;95.60
70762;DHT22;58360;0.000;0.000;2023-05-07T05:28:51;16.30;95.00
70762;DHT22;58360;0.000;0.000;2023-05-07T05:31:17;16.30;94.70
70762;DHT22;58360;0.000;0.000;2023-05-07T05:33:42;16.50;94.50
70762;DHT22;58360;0.000;0.000;2023-05-07T05:36:11;16.70;94.00
70762;DHT22;58360;0.000;0.000;2023-05-07T05:38:38;16.70;94.30
70762;DHT22;58360;0.000;0.000;2023-05-07T05:41:04;16.50;94.50
70762;DHT22;58360;0.000;0.000;2023-05-07T05:43:30;16.50;94.40
70762;DHT22;58360;0.000;0.000;2023-05-07T05:45:56;16.50;94.60
70762;DHT22;58360;0.000;0.000;2023-05-07T05:48:22;16.60;94.30
70762;DHT22;58360;0.000;0.000;2023-05-07T05:50:48;16.60;94.30
70762;DHT22;58360;0.000;0.000;2023-05-07T05:53:14;16.80;94.30
70762;DHT22;58360;0.000;0.000;2023-05-07T05:55:39;16.70;94.20
70762;DHT22;58360;0.000;0.000;2023-05-07T05:58:05;16.60;94.10
70762;DHT22;58360;0.000;0.000;2023-05-07T06:00:31;16.50;94.30
70762;DHT22;58360;0.000;0.000;2023-05-07T06:02:57;16.50;94.60
70762;DHT22;58360;0.000;0.000;2023-05-07T06:05:23;16.70;94.00
70762;DHT22;58360;0.000;0.000;2023-05-07T06:07:48;16.60;94.20
70762;DHT22;58360;0.000;0.000;2023-05-07T06:10:14;16.60;94.50
70762;DHT22;58360;0.000;0.000;2023-05-07T06:12:40;16.60;94.40
70762;DHT22;58360;0.000;0.000;2023-05-07T06:15:06;16.60;94.40
70762;DHT22;58360;0.000;0.000;2023-05-07T06:17:32;16.70;94.30
70762;DHT22;58360;0.000;0.000;2023-05-07T06:19:57;16.70;94.10
70762;DHT22;58360;0.000;0.000;2023-05-07T06:22:23;16.70;94.20
70762;DHT22;58360;0.000;0.000;2023-05-07T06:24:48;16.70;94.20
70762;DHT22;58360;0.000;0.000;2023-05-07T06:27:14;16.80;94.20
70762;DHT22;58360;0.000;0.000;2023-05-07T06:29:40;16.80;93.80
70762;DHT22;58360;0.000;0.000;2023-05-07T06:32:10;16.80;94.10
70762;DHT22;58360;0.000;0.000;2023-05-07T06:34:36;16.80;94.10
70762;DHT22;58360;0.000;0.000;2023-05-07T06:37:02;16.90;94.10
70762;DHT22;58360;0.000;0.000;2023-05-07T06:39:27;17.00;93.80
70762;DHT22;58360;0.000;0.000;2023-05-07T06:41:53;17.00;93.70
70762;DHT22;58360;0.000;0.000;2023-05-07T06:44:19;17.00;93.90
70762;DHT22;58360;0.000;0.000;2023-05-07T06:46:44;17.10;93.80
70762;DHT22;58360;0.000;0.000;2023-05-07T06:49:12;17.10;93.70
70762;DHT22;58360;0.000;0.000;2023-05-07T06:51:37;17.10;93.60
70762;DHT22;58360;0.000;0.000;2023-05-07T06:54:03;17.00;93.70
70762;DHT22;58360;0.000;0.000;2023-05-07T06:56:30;16.90;94.00
70762;DHT22;58360;0.000;0.000;2023-05-07T06:58:56;17.00;94.10
70762;DHT22;58360;0.000;0.000;2023-05-07T07:01:22;17.10;93.80
70762;DHT22;58360;0.000;0.000;2023-05-07T07:03:47;17.50;93.00
70762;DHT22;58360;0.000;0.000;2023-05-07T07:06:13;18.10;91.70
70762;DHT22;58360;0.000;0.000;2023-05-07T07:08:39;18.30;91.30
70762;DHT22;58360;0.000;0.000;2023-05-07T07:11:05;18.20;91.80
70762;DHT22;58360;0.000;0.000;2023-05-07T07:13:31;18.10;92.10
70762;DHT22;58360;0.000;0.000;2023-05-07T07:15:56;17.90;92.90
70762;DHT22;58360;0.000;0.000;2023-05-07T07:18:22;17.80;93.50
70762;DHT22;58360;0.000;0.000;2023-05-07T07:20:48;17.70;93.80
70762;DHT22;58360;0.000;0.000;2023-05-07T07:23:13;17.80;93.70
70762;DHT22;58360;0.000;0.000;2023-05-07T07:25:39;18.10;93.10
70762;DHT22;58360;0.000;0.000;2023-05-07T07:28:06;18.40;91.90
70762;DHT22;58360;0.000;0.000;2023-05-07T07:30:31;18.30;91.80
70762;DHT22;58360;0.000;0.000;2023-05-07T07:32:57;18.40;91.80
70762;DHT22;58360;0.000;0.000;2023-05-07T07:35:31;18.60;91.40
70762;DHT22;58360;0.000;0.000;2023-05-07T07:37:57;18.80;90.90
70762;DHT22;58360;0.000;0.000;2023-05-07T07:40:23;18.90;91.10
70762;DHT22;58360;0.000;0.000;2023-05-07T07:42:48;19.20;90.40
70762;DHT22;58360;0.000;0.000;2023-05-07T07:45:14;19.50;89.30
70762;DHT22;58360;0.000;0.000;2023-05-07T07:47:40;19.60;89.30
70762;DHT22;58360;0.000;0.000;2023-05-07T07:50:07;19.70;88.20
70762;DHT22;58360;0.000;0.000;2023-05-07T07:52:33;19.70;87.20
70762;DHT22;58360;0.000;0.000;2023-05-07T07:54:59;19.50;87.90
70762;DHT22;58360;0.000;0.000;2023-05-07T07:57:24;19.60;88.10
70762;DHT22;58360;0.000;0.000;2023-05-07T07:59:50;19.60;88.50
70762;DHT22;58360;0.000;0.000;2023-05-07T08:02:16;19.60;87.80
70762;DHT22;58360;0.000;0.000;2023-05-07T08:04:42;19.70;88.20
70762;DHT22;58360;0.000;0.000;2023-05-07T08:07:11;19.70;88.00
70762;DHT22;58360;0.000;0.000;2023-05-07T08:09:37;19.90;87.10
70762;DHT22;58360;0.000;0.000;2023-05-07T08:12:04;19.80;88.60
70762;DHT22;58360;0.000;0.000;2023-05-07T08:14:30;19.80;88.50
70762;DHT22;58360;0.000;0.000;2023-05-07T08:16:56;19.90;86.50
70762;DHT22;58360;0.000;0.000;2023-05-07T08:19:21;20.00;86.70
70762;DHT22;58360;0.000;0.000;2023-05-07T08:21:48;19.90;86.10
70762;DHT22;58360;0.000;0.000;2023-05-07T08:24:14;19.80;88.00
70762;DHT22;58360;0.000;0.000;2023-05-07T08:26:40;19.80;86.80
70762;DHT22;58360;0.000;0.000;2023-05-07T08:29:06;19.70;87.70
70762;DHT22;58360;0.000;0.000;2023-05-07T08:31:32;19.60;89.00
70762;DHT22;58360;0.000;0.000;2023-05-07T08:33:58;19.40;88.50
70762;DHT22;58360;0.000;0.000;2023-05-07T08:36:24;19.40;89.50
70762;DHT22;58360;0.000;0.000;2023-05-07T08:38:51;19.50;89.00
70762;DHT22;58360;0.000;0.000;2023-05-07T08:41:17;19.50;88.80
70762;DHT22;58360;0.000;0.000;2023-05-07T08:43:47;19.50;89.60
70762;DHT22;58360;0.000;0.000;2023-05-07T08:46:18;19.30;90.30
70762;DHT22;58360;0.000;0.000;2023-05-07T08:48:45;19.10;91.00
70762;DHT22;58360;0.000;0.000;2023-05-07T08:51:14;18.90;91.60
70762;DHT22;58360;0.000;0.000;2023-05-07T08:53:41;18.90;91.90
70762;DHT22;58360;0.000;0.000;2023-05-07T08:56:08;19.10;91.40
70762;DHT22;58360;0.000;0.000;2023-05-07T08:58:35;19.20;91.40
70762;DHT22;58360;0.000;0.000;2023-05-07T09:01:05;19.30;91.30
70762;DHT22;58360;0.000;0.000;2023-05-07T09:03:32;19.60;90.40
70762;DHT22;58360;0.000;0.000;2023-05-07T09:05:58;19.50;90.90
70762;DHT22;58360;0.000;0.000;2023-05-07T09:08:27;19.40;91.10
70762;DHT22;58360;0.000;0.000;2023-05-07T09:10:53;19.50;90.70
70762;DHT22;58360;0.000;0.000;2023-05-07T09:13:20;19.60;90.60
70762;DHT22;58360;0.000;0.000;2023-05-07T09:15:45;19.40;90.90
70762;DHT22;58360;0.000;0.000;2023-05-07T09:18:12;19.30;91.00
70762;DHT22;58360;0.000;0.000;2023-05-07T09:20:40;19.30;90.90
70762;DHT22;58360;0.000;0.000;2023-05-07T09:23:07;19.40;90.60
70762;DHT22;58360;0.000;0.000;2023-05-07T09:25:34;19.40;90.60
70762;DHT22;58360;0.000;0.000;2023-05-07T09:28:01;19.40;90.90
70762;DHT22;58360;0.000;0.000;2023-05-07T09:30:30;19.10;91.70
70762;DHT22;58360;0.000;0.000;2023-05-07T09:32:58;19.20;91.70
70762;DHT22;58360;0.000;0.000;2023-05-07T09:35:25;19.40;91.10
70762;DHT22;58360;0.000;0.000;2023-05-07T09:37:56;19.40;91.70
70762;DHT22;58360;0.000;0.000;2023-05-07T09:40:25;19.30;91.70
70762;DHT22;58360;0.000;0.000;2023-05-07T09:42:51;19.40;91.70
70762;DHT22;58360;0.000;0.000;2023-05-07T09:45:29;19.60;91.60
70762;DHT22;58360;0.000;0.000;2023-05-07T09:47:57;19.50;91.90
70762;DHT22;58360;0.000;0.000;2023-05-07T09:50:30;19.30;92.10
70762;DHT22;58360;0.000;0.000;2023-05-07T09:52:58;19.30;91.90
70762;DHT22;58360;0.000;0.000;2023-05-07T09:55:24;19.40;92.30
70762;DHT22;58360;0.000;0.000;2023-05-07T09:57:51;19.40;92.20
70762;DHT22;58360;0.000;0.000;2023-05-07T10:00:21;19.60;91.40
70762;DHT22;58360;0.000;0.000;2023-05-07T10:02:49;19.60;91.60
70762;DHT22;58360;0.000;0.000;2023-05-07T10:05:18;19.70;91.50
70762;DHT22;58360;0.000;0.000;2023-05-07T10:07:46;19.80;91.30
70762;DHT22;58360;0.000;0.000;2023-05-07T10:10:12;19.90;91.20
70762;DHT22;58360;0.000;0.000;2023-05-07T10:12:38;19.80;91.40
70762;DHT22;58360;0.000;0.000;2023-05-07T10:15:09;19.90;91.30
70762;DHT22;58360;0.000;0.000;2023-05-07T10:17:39;20.00;91.20
70762;DHT22;58360;0.000;0.000;2023-05-07T10:20:06;20.10;90.80
70762;DHT22;58360;0.000;0.000;2023-05-07T10:22:44;20.10;90.70
70762;DHT22;58360;0.000;0.000;2023-05-07T10:25:21;20.10;90.80
70762;DHT22;58360;0.000;0.000;2023-05-07T10:27:49;20.10;90.80
70762;DHT22;58360;0.000;0.000;2023-05-07T10:30:38;20.00;91.10
70762;DHT22;58360;0.000;0.000;2023-05-07T10:33:07;19.90;91.20
70762;DHT22;58360;0.000;0.000;2023-05-07T10:35:42;19.90;91.70
70762;DHT22;58360;0.000;0.000;2023-05-07T10:38:08;19.90;91.10
70762;DHT22;58360;0.000;0.000;2023-05-07T10:40:34;20.00;91.00
70762;DHT22;58360;0.000;0.000;2023-05-07T10:43:02;20.00;90.80
70762;DHT22;58360;0.000;0.000;2023-05-07T10:45:30;19.80;91.90
70762;DHT22;58360;0.000;0.000;2023-05-07T10:48:17;20.00;90.60
70762;DHT22;58360;0.000;0.000;2023-05-07T10:50:44;20.00;90.60
70762;DHT22;58360;0.000;0.000;2023-05-07T10:58:44;20.00;91.80
70762;DHT22;58360;0.000;0.000;2023-05-07T11:01:10;20.20;91.00
70762;DHT22;58360;0.000;0.000;2023-05-07T11:04:13;20.20;90.60
70762;DHT22;58360;0.000;0.000;2023-05-07T11:06:40;20.20;90.80
70762;DHT22;58360;0.000;0.000;2023-05-07T11:09:05;20.40;90.10
70762;DHT22;58360;0.000;0.000;2023-05-07T11:11:50;20.40;90.50
70762;DHT22;58360;0.000;0.000;2023-05-07T11:17:06;20.30;90.60
70762;DHT22;58360;0.000;0.000;2023-05-07T11:19:52;20.40;90.30
70762;DHT22;58360;0.000;0.000;2023-05-07T11:25:01;20.40;88.20
70762;DHT22;58360;0.000;0.000;2023-05-07T11:27:27;20.30;88.80
70762;DHT22;58360;0.000;0.000;2023-05-07T11:29:53;20.00;90.20
70762;DHT22;58360;0.000;0.000;2023-05-07T11:32:26;20.00;90.60
70762;DHT22;58360;0.000;0.000;2023-05-07T11:34:53;19.90;91.10
70762;DHT22;58360;0.000;0.000;2023-05-07T11:37:20;19.80;91.30
70762;DHT22;58360;0.000;0.000;2023-05-07T11:39:46;19.90;90.70
70762;DHT22;58360;0.000;0.000;2023-05-07T11:42:29;19.90;91.10
70762;DHT22;58360;0.000;0.000;2023-05-07T11:44:55;20.10;90.70
70762;DHT22;58360;0.000;0.000;2023-05-07T11:47:21;20.20;90.80
70762;DHT22;58360;0.000;0.000;2023-05-07T11:49:48;20.40;90.30
70762;DHT22;58360;0.000;0.000;2023-05-07T11:52:15;20.60;89.60
70762;DHT22;58360;0.000;0.000;2023-05-07T11:54:44;20.70;88.70
70762;DHT22;58360;0.000;0.000;2023-05-07T11:57:16;20.70;89.40
70762;DHT22;58360;0.000;0.000;2023-05-07T11:59:42;20.80;88.00
70762;DHT22;58360;0.000;0.000;2023-05-07T12:02:14;20.90;87.90
70762;DHT22;58360;0.000;0.000;2023-05-07T12:04:41;20.90;86.60
70762;DHT22;58360;0.000;0.000;2023-05-07T12:07:16;20.90;86.80
70762;DHT22;58360;0.000;0.000;2023-05-07T12:09:43;20.80;88.30
70762;DHT22;58360;0.000;0.000;2023-05-07T12:12:09;20.80;88.10
70762;DHT22;58360;0.000;0.000;2023-05-07T12:14:39;21.00;88.20
70762;DHT22;58360;0.000;0.000;2023-05-07T12:17:09;21.10;88.40
70762;DHT22;58360;0.000;0.000;2023-05-07T12:19:36;21.20;87.90
70762;DHT22;58360;0.000;0.000;2023-05-07T12:22:07;21.10;87.30
70762;DHT22;58360;0.000;0.000;2023-05-07T12:24:46;21.30;85.60
70762;DHT22;58360;0.000;0.000;2023-05-07T12:27:16;21.50;85.10
70762;DHT22;58360;0.000;0.000;2023-05-07T12:29:49;21.60;85.10
70762;DHT22;58360;0.000;0.000;2023-05-07T12:32:16;21.70;84.70
70762;DHT22;58360;0.000;0.000;2023-05-07T12:34:43;21.60;84.50
70762;DHT22;58360;0.000;0.000;2023-05-07T12:37:09;21.60;85.20
70762;DHT22;58360;0.000;0.000;2023-05-07T12:39:35;21.70;85.40
70762;DHT22;58360;0.000;0.000;2023-05-07T12:42:01;21.70;86.60
70762;DHT22;58360;0.000;0.000;2023-05-07T12:44:32;22.00;84.30
70762;DHT22;58360;0.000;0.000;2023-05-07T12:46:58;22.10;84.30
70762;DHT22;58360;0.000;0.000;2023-05-07T12:49:24;22.10;83.10
70762;DHT22;58360;0.000;0.000;2023-05-07T12:51:50;21.30;86.10
70762;DHT22;58360;0.000;0.000;2023-05-07T12:54:32;21.60;83.90
70762;DHT22;58360;0.000;0.000;2023-05-07T12:57:19;21.80;84.00
70762;DHT22;58360;0.000;0.000;2023-05-07T12:59:45;21.60;85.70
70762;DHT22;58360;0.000;0.000;2023-05-07T13:02:11;22.10;82.40
70762;DHT22;58360;0.000;0.000;2023-05-07T13:04:36;22.20;82.20
70762;DHT22;58360;0.000;0.000;2023-05-07T13:07:02;22.00;82.90
70762;DHT22;58360;0.000;0.000;2023-05-07T13:09:28;22.20;83.10
70762;DHT22;58360;0.000;0.000;2023-05-07T13:11:58;22.60;81.90
70762;DHT22;58360;0.000;0.000;2023-05-07T13:14:26;22.20;82.10
70762;DHT22;58360;0.000;0.000;2023-05-07T13:16:52;22.40;80.70
70762;DHT22;58360;0.000;0.000;2023-05-07T13:19:17;22.80;79.80
70762;DHT22;58360;0.000;0.000;2023-05-07T13:21:43;22.50;79.30
70762;DHT22;58360;0.000;0.000;2023-05-07T13:24:09;22.10;80.60
70762;DHT22;58360;0.000;0.000;2023-05-07T13:26:34;22.30;80.30
70762;DHT22;58360;0.000;0.000;2023-05-07T13:29:00;22.80;78.10
70762;DHT22;58360;0.000;0.000;2023-05-07T13:31:26;22.90;77.40
70762;DHT22;58360;0.000;0.000;2023-05-07T13:33:51;23.10;77.70
70762;DHT22;58360;0.000;0.000;2023-05-07T13:36:18;23.40;75.10
70762;DHT22;58360;0.000;0.000;2023-05-07T13:38:43;23.20;75.50
70762;DHT22;58360;0.000;0.000;2023-05-07T13:41:09;23.00;75.30
70762;DHT22;58360;0.000;0.000;2023-05-07T13:43:35;22.70;77.50
70762;DHT22;58360;0.000;0.000;2023-05-07T13:46:00;23.00;77.70
70762;DHT22;58360;0.000;0.000;2023-05-07T13:48:26;23.20;76.50
70762;DHT22;58360;0.000;0.000;2023-05-07T13:50:53;23.00;78.50
70762;DHT22;58360;0.000;0.000;2023-05-07T13:53:19;22.90;80.20
70762;DHT22;58360;0.000;0.000;2023-05-07T13:55:45;23.10;77.00
70762;DHT22;58360;0.000;0.000;2023-05-07T13:58:11;23.30;75.30
70762;DHT22;58360;0.000;0.000;2023-05-07T14:00:37;23.60;75.90
70762;DHT22;58360;0.000;0.000;2023-05-07T14:03:04;23.50;75.30
70762;DHT22;58360;0.000;0.000;2023-05-07T14:05:30;23.20;77.30
70762;DHT22;58360;0.000;0.000;2023-05-07T14:07:57;23.00;77.40
70762;DHT22;58360;0.000;0.000;2023-05-07T14:10:23;22.70;76.90
70762;DHT22;58360;0.000;0.000;2023-05-07T14:12:49;22.20;78.70
70762;DHT22;58360;0.000;0.000;2023-05-07T14:15:15;21.70;81.40
70762;DHT22;58360;0.000;0.000;2023-05-07T14:17:42;21.60;82.10
70762;DHT22;58360;0.000;0.000;2023-05-07T14:20:08;22.10;79.90
70762;DHT22;58360;0.000;0.000;2023-05-07T14:22:34;22.40;79.60
70762;DHT22;58360;0.000;0.000;2023-05-07T14:25:00;22.80;77.30
70762;DHT22;58360;0.000;0.000;2023-05-07T14:27:25;22.80;78.10
70762;DHT22;58360;0.000;0.000;2023-05-07T14:29:51;22.90;76.90
70762;DHT22;58360;0.000;0.000;2023-05-07T14:32:20;22.60;78.30
70762;DHT22;58360;0.000;0.000;2023-05-07T14:34:46;22.20;77.80
70762;DHT22;58360;0.000;0.000;2023-05-07T14:37:12;22.00;80.00
70762;DHT22;58360;0.000;0.000;2023-05-07T14:39:38;21.90;81.60
70762;DHT22;58360;0.000;0.000;2023-05-07T14:42:03;21.50;82.30
70762;DHT22;58360;0.000;0.000;2023-05-07T14:44:29;21.20;81.80
70762;DHT22;58360;0.000;0.000;2023-05-07T14:46:55;21.10;83.30
70762;DHT22;58360;0.000;0.000;2023-05-07T14:49:21;21.40;82.50
70762;DHT22;58360;0.000;0.000;2023-05-07T14:51:47;21.70;82.30
70762;DHT22;58360;0.000;0.000;2023-05-07T14:54:13;21.60;82.20
70762;DHT22;58360;0.000;0.000;2023-05-07T14:56:40;21.50;82.80
70762;DHT22;58360;0.000;0.000;2023-05-07T14:59:06;21.50;83.30
70762;DHT22;58360;0.000;0.000;2023-05-07T15:01:32;21.70;82.20
70762;DHT22;58360;0.000;0.000;2023-05-07T15:03:58;21.30;83.20
70762;DHT22;58360;0.000;0.000;2023-05-07T15:06:23;21.30;84.80
70762;DHT22;58360;0.000;0.000;2023-05-07T15:08:49;21.10;84.60
70762;DHT22;58360;0.000;0.000;2023-05-07T15:11:15;21.10;84.70
70762;DHT22;58360;0.000;0.000;2023-05-07T15:13:42;20.80;85.20
70762;DHT22;58360;0.000;0.000;2023-05-07T15:16:07;20.70;85.50
70762;DHT22;58360;0.000;0.000;2023-05-07T15:18:33;20.70;85.20
70762;DHT22;58360;0.000;0.000;2023-05-07T15:20:59;20.70;85.70
70762;DHT22;58360;0.000;0.000;2023-05-07T15:23:25;20.90;84.90
70762;DHT22;58360;0.000;0.000;2023-05-07T15:25:52;20.90;84.60
70762;DHT22;58360;0.000;0.000;2023-05-07T15:28:17;20.80;84.70
70762;DHT22;58360;0.000;0.000;2023-05-07T15:30:43;20.70;85.10
70762;DHT22;58360;0.000;0.000;2023-05-07T15:33:09;20.90;84.60
70762;DHT22;58360;0.000;0.000;2023-05-07T15:35:34;20.70;84.80
70762;DHT22;58360;0.000;0.000;2023-05-07T15:38:00;20.80;84.60
70762;DHT22;58360;0.000;0.000;2023-05-07T15:40:29;21.00;83.90
70762;DHT22;58360;0.000;0.000;2023-05-07T15:42:55;20.90;84.10
70762;DHT22;58360;0.000;0.000;2023-05-07T15:45:24;20.80;84.50
70762;DHT22;58360;0.000;0.000;2023-05-07T15:47:50;20.70;84.90
70762;DHT22;58360;0.000;0.000;2023-05-07T15:50:16;20.80;84.10
70762;DHT22;58360;0.000;0.000;2023-05-07T15:52:41;20.80;84.40
70762;DHT22;58360;0.000;0.000;2023-05-07T15:55:08;20.60;84.70